Lockwood, Nevada
Current Conditions -  °F | °C
As of 8:55 AM on Friday 31 Oct 2014 (Local Time) from KRNO Reporting Station
Few Clouds Few Clouds  
Wind Chill: 54°   Ceiling: Unl
Heat Index: 54°   Visibility: 10mi
Dew Point: 32°   Wind: 6mph
Humidity: 43%   Direction: 330°NNW
Pressure: 29.88"   Gusts: NA
Location:  39.5403°N, 119.672°W
Report Text: KRNO 311555Z 33005KT 10SM FEW100 FEW150 FEW200 12/00 A2988 RMK AO2 SLP090 ACSL DSNT SE-SW T01220000
Loading
Personal Weather Stations






























Interactive Weather Map
Tropical Storm Tracking
New forecast layout! Learn more

10-Day Weather Forecast

Advertisements
Track Severe Weather on mobile